Time;durP1;ratioP1;P1;durP2;ratioP2;P2;SDS_P1;SDS_P2;PMS_P1;PMS_P2;Temp;Humidity;BMP_temperature;BMP_pressure;BME280_temperature;BME280_humidity;BME280_pressure;Samples;Min_cycle;Max_cycle;Signal;HPM_P1;HPM_P2
2023/10/17 00:01:54;;;;;;;27.60;14.10;;;;;;;1.48;90.61;101173.27;105504;1256;81396;-57
2023/10/17 00:06:54;;;;;;;18.80;9.30;;;;;;;1.49;90.69;101175.00;105519;1256;69090;-57
2023/10/17 00:09:24;;;;;;;12.80;7.70;;;;;;;1.47;90.48;101178.23;105565;1258;69318;-57
2023/10/17 00:17:19;;;;;;;19.20;10.20;;;;;;;1.40;90.80;101170.58;105540;1258;72883;-57
2023/10/17 00:19:49;;;;;;;19.10;11.50;;;;;;;1.42;90.86;101169.22;105680;1259;69090;-57
2023/10/17 00:22:23;;;;;;;14.90;9.50;;;;;;;1.45;91.22;101168.05;105603;1254;69203;-56
2023/10/17 00:24:57;;;;;;;15.60;10.40;;;;;;;1.47;91.06;101169.13;105582;1257;71524;-57
2023/10/17 00:27:25;;;;;;;10.90;7.20;;;;;;;1.49;91.00;101167.43;105590;1256;81701;-56
2023/10/17 00:29:53;;;;;;;8.00;6.00;;;;;;;1.48;90.81;101168.09;105395;1258;71958;-56
2023/10/17 00:32:23;;;;;;;8.40;5.60;;;;;;;1.43;90.52;101170.61;105452;1257;69126;-57
2023/10/17 00:34:51;;;;;;;8.10;5.80;;;;;;;1.37;90.18;101172.95;105628;1256;69119;-57
2023/10/17 00:37:20;;;;;;;7.80;5.30;;;;;;;1.30;89.92;101170.96;105533;1255;71820;-57
2023/10/17 00:39:48;;;;;;;9.80;5.30;;;;;;;1.27;90.29;101172.47;105422;1256;81358;-57
2023/10/17 00:42:34;;;;;;;8.50;5.60;;;;;;;1.28;90.38;101173.35;105615;1257;70254;-57
2023/10/17 00:45:03;;;;;;;9.90;5.40;;;;;;;1.23;90.14;101173.63;105447;1255;69832;-56
2023/10/17 00:47:32;;;;;;;7.10;5.30;;;;;;;1.19;90.02;101177.36;105632;1254;69092;-57
2023/10/17 00:50:07;;;;;;;9.00;5.50;;;;;;;1.15;90.06;101172.98;105579;1256;72199;-57
2023/10/17 00:52:36;;;;;;;8.50;4.80;;;;;;;1.14;90.27;101168.33;105571;1254;81094;-57
2023/10/17 00:55:05;;;;;;;9.10;4.90;;;;;;;1.14;90.51;101169.18;105413;1256;71573;-57
2023/10/17 00:57:36;;;;;;;8.60;4.60;;;;;;;1.11;90.48;101169.86;105513;1256;69176;-56
2023/10/17 01:00:24;;;;;;;6.20;4.20;;;;;;;1.11;90.52;101163.30;105569;1257;69190;-57
2023/10/17 01:02:58;;;;;;;7.60;4.50;;;;;;;1.08;90.17;101162.58;105638;1254;73093;-57
2023/10/17 01:05:26;;;;;;;7.80;4.40;;;;;;;1.05;90.43;101159.61;105437;1254;82126;-57
2023/10/17 01:07:57;;;;;;;8.90;4.90;;;;;;;1.01;90.20;101158.85;105524;1257;71446;-57
2023/10/17 01:10:28;;;;;;;7.50;4.70;;;;;;;1.02;90.71;101158.36;105483;1254;69144;-56
2023/10/17 01:13:03;;;;;;;;;;;;;;;1.05;90.62;101161.34;105523;1256;69161;-57
2023/10/17 01:15:32;;;;;;;5.00;4.00;;;;;;;1.01;90.48;101163.33;105633;1256;71040;-56
2023/10/17 01:18:06;;;;;;;6.40;4.30;;;;;;;0.98;90.60;101162.09;105583;1256;81787;-57
2023/10/17 01:20:35;;;;;;;8.00;4.60;;;;;;;0.97;90.48;101167.41;105582;1257;71814;-56
2023/10/17 01:23:04;;;;;;;9.10;4.60;;;;;;;0.93;90.50;101169.59;105583;1254;69179;-57
2023/10/17 01:25:40;;;;;;;6.60;4.40;;;;;;;0.91;90.60;101164.39;105460;1254;69316;-57
2023/10/17 01:28:10;;;;;;;7.70;5.20;;;;;;;0.90;90.77;101169.54;105565;1254;71224;-57
2023/10/17 01:30:41;;;;;;;11.40;5.80;;;;;;;0.92;90.83;101170.77;105592;1254;81417;-56
2023/10/17 01:33:12;;;;;;;9.20;5.70;;;;;;;0.92;90.98;101175.08;105568;1254;71738;-56
2023/10/17 01:35:44;;;;;;;9.10;5.90;;;;;;;0.94;91.33;101171.15;105555;1257;69119;-56
2023/10/17 01:38:13;;;;;;;9.70;5.40;;;;;;;0.95;91.37;101169.45;105610;1254;69123;-56
2023/10/17 01:40:41;;;;;;;11.50;7.00;;;;;;;0.96;91.39;101168.94;105447;1257;71168;-57
2023/10/17 01:43:10;;;;;;;12.00;7.00;;;;;;;0.98;91.53;101166.73;105579;1255;80178;-54
2023/10/17 01:45:41;;;;;;;9.40;5.90;;;;;;;0.99;91.70;101170.54;105558;1254;72360;-56
2023/10/17 01:48:13;;;;;;;12.00;6.30;;;;;;;0.98;91.53;101170.86;105551;1256;69110;-57
2023/10/17 01:50:44;;;;;;;9.30;6.50;;;;;;;0.96;91.50;101168.42;105585;1254;69206;-57
2023/10/17 01:53:12;;;;;;;10.50;6.00;;;;;;;0.96;91.51;101169.64;105505;1254;73219;-58
2023/10/17 01:55:48;;;;;;;7.60;5.10;;;;;;;0.94;91.21;101170.29;105687;1254;81950;-57
2023/10/17 01:58:18;;;;;;;6.20;4.60;;;;;;;0.90;91.11;101166.45;105432;1257;71692;-58
2023/10/17 02:00:46;;;;;;;7.00;4.40;;;;;;;0.88;91.10;101168.48;105489;1257;69202;-57
2023/10/17 02:03:16;;;;;;;6.80;4.60;;;;;;;0.84;90.85;101163.27;105599;1256;69073;-58
2023/10/17 02:05:45;;;;;;;7.20;4.50;;;;;;;0.80;90.76;101163.88;105584;1256;73366;-57
2023/10/17 02:08:14;;;;;;;5.70;4.10;;;;;;;0.75;90.61;101159.34;105514;1254;80482;-57
2023/10/17 02:10:43;;;;;;;7.30;4.80;;;;;;;0.72;90.83;101159.98;105634;1254;70382;-57
2023/10/17 02:13:12;;;;;;;7.60;5.20;;;;;;;0.70;90.79;101166.83;105532;1257;69122;-58
2023/10/17 02:15:40;;;;;;;8.10;5.00;;;;;;;0.66;90.71;101166.93;105574;1257;69202;-57
2023/10/17 02:18:12;;;;;;;9.10;4.90;;;;;;;0.63;90.68;101166.90;105552;1256;71029;-58
2023/10/17 02:20:49;;;;;;;8.10;5.70;;;;;;;0.61;91.00;101162.91;105598;1254;81721;-57
2023/10/17 02:23:25;;;;;;;15.20;8.50;;;;;;;0.61;91.12;101162.73;105562;1254;72273;-58
2023/10/17 02:25:54;;;;;;;22.60;11.10;;;;;;;0.60;91.43;101165.98;105522;1254;69774;-57
2023/10/17 02:28:24;;;;;;;31.60;13.50;;;;;;;0.62;91.54;101162.75;105538;1254;69572;-57
2023/10/17 02:30:53;;;;;;;26.40;11.70;;;;;;;0.63;91.63;101163.80;105613;1255;72399;-58
2023/10/17 02:33:21;;;;;;;40.40;17.50;;;;;;;0.63;91.69;101160.70;105566;1256;81670;-58
2023/10/17 02:36:07;;;;;;;43.40;16.30;;;;;;;0.64;91.89;101161.23;105530;1254;71652;-58
2023/10/17 02:38:36;;;;;;;28.50;11.80;;;;;;;0.65;91.77;101160.39;105577;1257;69162;-57
2023/10/17 02:41:08;;;;;;;39.00;15.80;;;;;;;0.64;91.89;101163.13;105619;1257;69214;-57
2023/10/17 02:43:45;;;;;;;87.40;22.60;;;;;;;0.64;91.82;101161.94;105601;1254;72576;-58
2023/10/17 02:46:14;;;;;;;51.90;17.10;;;;;;;0.65;91.98;101167.28;105571;1255;81812;-58
2023/10/17 02:48:45;;;;;;;48.20;13.70;;;;;;;0.68;92.22;101172.29;105448;1254;70381;-58
2023/10/17 02:51:34;;;;;;;44.40;16.60;;;;;;;0.69;92.20;101173.70;105454;1257;69234;-57
2023/10/17 02:54:05;;;;;;;34.10;12.20;;;;;;;0.69;92.14;101172.83;105547;1256;69251;-57
2023/10/17 02:56:37;;;;;;;28.70;9.90;;;;;;;0.69;92.27;101170.25;105581;1257;73293;-57
2023/10/17 02:59:06;;;;;;;23.30;11.50;;;;;;;0.72;92.26;101167.71;105543;1255;81646;-58
2023/10/17 03:01:36;;;;;;;41.80;15.00;;;;;;;0.75;92.31;101167.95;105604;1257;71672;-57
2023/10/17 03:04:10;;;;;;;49.80;16.20;;;;;;;0.74;92.05;101174.13;105561;1254;69179;-58
2023/10/17 03:06:46;;;;;;;46.80;15.90;;;;;;;0.72;92.01;101177.20;105497;1257;69174;-57
2023/10/17 03:17:15;;;;;;;25.70;9.80;;;;;;;0.62;91.94;101173.59;105581;1254;69135;-57
2023/10/17 03:19:43;;;;;;;17.60;7.20;;;;;;;0.59;91.79;101173.89;105493;1253;69831;-57
2023/10/17 03:22:27;;;;;;;9.20;5.80;;;;;;;0.56;91.80;101177.80;105543;1254;71822;-58
2023/10/17 03:25:02;;;;;;;13.90;7.30;;;;;;;0.52;91.68;101179.96;105597;1255;81147;-57
2023/10/17 03:27:37;;;;;;;9.80;5.90;;;;;;;0.47;91.69;101177.47;105534;1252;72364;-58
2023/10/17 03:30:11;;;;;;;22.40;11.40;;;;;;;0.44;91.75;101179.65;105544;1254;69216;-57
2023/10/17 03:35:29;;;;;;;36.90;11.50;;;;;;;0.45;91.83;101182.77;105640;1254;73039;-58
2023/10/17 03:37:57;;;;;;;24.00;10.20;;;;;;;0.47;92.07;101185.39;105481;1257;82581;-57
2023/10/17 03:40:41;;;;;;;14.70;6.90;;;;;;;0.51;92.13;101187.17;105563;1254;70551;-57
2023/10/17 03:43:12;;;;;;;20.00;8.70;;;;;;;0.49;92.10;101187.99;105570;1253;69253;-57
2023/10/17 03:45:51;;;;;;;15.70;6.90;;;;;;;0.48;91.88;101191.77;105576;1256;69195;-57
2023/10/17 03:48:21;;;;;;;11.60;6.80;;;;;;;0.45;91.82;101186.89;105594;1252;72350;-58
2023/10/17 03:51:08;;;;;;;9.50;5.70;;;;;;;0.44;91.91;101186.36;105706;1256;82272;-58
2023/10/17 03:53:44;;;;;;;13.00;6.10;;;;;;;0.45;92.08;101186.21;105563;1253;71326;-58
2023/10/17 03:56:23;;;;;;;15.70;7.50;;;;;;;0.46;92.32;101187.09;105575;1252;69183;-58
2023/10/17 03:58:57;;;;;;;16.40;7.60;;;;;;;0.49;92.42;101185.58;105588;1257;69192;-58
2023/10/17 04:01:28;;;;;;;19.20;9.50;;;;;;;0.52;92.53;101187.88;105612;1256;70903;-58
2023/10/17 04:03:57;;;;;;;23.20;9.70;;;;;;;0.58;92.83;101191.40;105578;1256;81545;-58
2023/10/17 04:06:39;;;;;;;15.40;8.90;;;;;;;0.66;93.21;101185.17;105503;1256;72291;-58
2023/10/17 04:09:20;;;;;;;14.30;8.90;;;;;;;0.71;93.34;101185.44;105565;1256;69205;-58
2023/10/17 04:11:49;;;;;;;16.70;10.40;;;;;;;0.77;93.34;101187.58;105609;1256;69199;-58
2023/10/17 04:14:17;;;;;;;12.70;7.10;;;;;;;0.85;93.73;101190.27;105578;1254;71759;-59
2023/10/17 04:16:48;;;;;;;20.50;9.90;;;;;;;0.87;93.44;101187.74;105548;1256;81498;-58
2023/10/17 04:19:17;;;;;;;16.70;9.80;;;;;;;0.90;93.56;101186.23;105577;1255;73752;-58
2023/10/17 04:24:45;;;;;;;16.10;9.50;;;;;;;1.00;93.53;101187.59;105555;1256;69141;-59
2023/10/17 04:29:43;;;;;;;16.70;10.40;;;;;;;1.03;93.38;101190.90;105528;1253;81732;-59
2023/10/17 04:32:14;;;;;;;10.60;7.40;;;;;;;1.07;93.55;101186.83;105638;1252;72258;-58
2023/10/17 04:34:48;;;;;;;10.60;6.80;;;;;;;1.09;93.63;101183.77;105565;1254;69153;-58
2023/10/17 04:37:17;;;;;;;11.20;7.70;;;;;;;1.10;93.53;101186.35;105605;1254;69203;-58
2023/10/17 04:39:49;;;;;;;8.30;5.80;;;;;;;1.13;93.67;101188.13;105651;1256;72332;-58
2023/10/17 04:42:26;;;;;;;8.70;6.20;;;;;;;1.19;93.88;101185.98;105591;1256;81389;-58
2023/10/17 04:45:03;;;;;;;9.60;7.50;;;;;;;1.24;93.62;101186.72;105550;1253;71489;-58
2023/10/17 04:47:32;;;;;;;8.50;6.20;;;;;;;1.28;93.76;101183.85;105603;1255;69454;-58
2023/10/17 04:50:01;;;;;;;10.40;7.10;;;;;;;1.32;93.78;101184.08;105672;1256;69190;-58
2023/10/17 04:52:40;;;;;;;8.50;6.00;;;;;;;1.34;93.83;101183.07;105623;1253;70894;-58
2023/10/17 04:57:59;;;;;;;10.50;7.60;;;;;;;1.37;93.61;101176.56;105574;1252;71698;-58
2023/10/17 05:03:14;;;;;;;8.90;6.20;;;;;;;1.46;93.92;101179.95;105611;1256;69129;-58
2023/10/17 05:08:33;;;;;;;8.70;6.30;;;;;;;1.53;93.86;101176.08;105551;1253;81417;-53
2023/10/17 06:17:50;;;;;;;9.80;7.10;;;;;;;2.67;95.19;101240.73;105718;1256;81822;-51
2023/10/17 06:20:44;;;;;;;13.50;9.30;;;;;;;2.74;95.20;101238.71;105598;1254;72741;-53
2023/10/17 06:23:23;;;;;;;;;;;;;;;2.80;95.03;101241.52;105636;1255;69079;-56
2023/10/17 06:26:05;;;;;;;14.00;8.80;;;;;;;2.88;95.39;101241.94;105562;1252;69236;-52
2023/10/17 06:28:46;;;;;;;9.90;7.50;;;;;;;2.97;95.19;101242.17;105644;1253;72189;-56
2023/10/17 06:31:34;;;;;;;9.90;6.90;;;;;;;3.02;95.23;101242.21;105695;1252;82757;-54
2023/10/17 06:34:03;;;;;;;11.60;8.10;;;;;;;3.09;95.27;101237.95;105572;1255;72418;-54
2023/10/17 06:36:31;;;;;;;12.10;8.90;;;;;;;3.16;95.42;101238.69;105609;1253;69080;-55
2023/10/17 06:39:07;;;;;;;11.30;7.90;;;;;;;3.25;95.25;101250.85;105569;1253;69278;-52
2023/10/17 06:41:38;;;;;;;24.40;14.30;;;;;;;3.32;95.49;101251.77;105651;1256;72129;-55
2023/10/17 06:44:08;;;;;;;24.10;15.60;;;;;;;3.42;95.52;101254.75;105536;1252;81356;-54
2023/10/17 06:46:55;;;;;;;30.50;15.80;;;;;;;3.50;95.61;101257.04;105585;1253;72442;-54
2023/10/17 06:54:43;;;;;;;109.50;51.10;;;;;;;3.67;95.27;101258.51;105576;1254;73272;-55
2023/10/17 06:57:23;;;;;;;145.00;68.70;;;;;;;3.71;95.43;101267.34;105625;1252;81921;-54
2023/10/17 06:59:53;;;;;;;172.70;83.60;;;;;;;3.77;95.54;101269.80;105599;1255;72964;-55
2023/10/17 07:02:28;;;;;;;127.70;63.30;;;;;;;3.86;95.74;101269.48;105612;1254;69118;-54
2023/10/17 07:05:01;;;;;;;84.10;41.80;;;;;;;3.96;95.85;101269.89;105554;1255;69181;-56
2023/10/17 07:07:39;;;;;;;75.70;40.70;;;;;;;4.04;95.85;101273.90;105621;1254;71888;-54
2023/10/17 07:10:37;;;;;;;32.70;18.90;;;;;;;4.14;95.87;101275.14;105589;1255;81619;-54
2023/10/17 07:13:49;;;;;;;20.60;12.00;;;;;;;4.21;95.88;101277.59;105588;1253;71961;-54
2023/10/17 07:16:32;;;;;;;52.60;27.70;;;;;;;4.30;95.94;101273.64;105602;1254;69211;-55
2023/10/17 07:20:12;;;;;;;28.30;17.00;;;;;;;4.40;96.06;101272.96;105598;1256;69185;-54
2023/10/17 07:24:33;;;;;;;29.80;17.30;;;;;;;4.58;96.03;101276.45;105634;1255;82783;-55
2023/10/17 07:27:11;;;;;;;20.60;11.30;;;;;;;4.70;96.37;101278.02;105578;1253;71079;-55
2023/10/17 07:29:57;;;;;;;12.00;8.60;;;;;;;4.83;96.39;101273.38;105574;1255;69197;-54
2023/10/17 07:32:32;;;;;;;13.90;9.90;;;;;;;4.97;96.84;101269.39;105598;1253;69273;-51
2023/10/17 07:35:04;;;;;;;10.70;7.60;;;;;;;5.13;96.84;101269.04;105605;1254;72006;-54
2023/10/17 07:37:48;;;;;;;11.10;8.30;;;;;;;5.27;96.82;101267.64;105606;1256;80204;-53
2023/10/17 07:40:18;;;;;;;13.20;7.80;;;;;;;5.38;96.84;101266.40;105581;1252;72055;-55
2023/10/17 07:42:47;;;;;;;26.20;14.10;;;;;;;5.48;96.66;101261.88;105576;1254;69166;-52
2023/10/17 07:45:16;;;;;;;12.80;9.20;;;;;;;5.57;96.74;101266.88;105530;1252;69123;-55
2023/10/17 07:47:51;;;;;;;13.30;8.20;;;;;;;5.66;96.69;101263.21;105619;1253;72019;-53
2023/10/17 07:50:20;;;;;;;13.10;8.50;;;;;;;5.74;96.68;101265.10;105524;1255;82577;-52
2023/10/17 07:52:54;;;;;;;12.10;8.50;;;;;;;5.82;96.60;101263.17;105634;1252;71796;-54
2023/10/17 07:58:06;;;;;;;12.10;8.50;;;;;;;5.96;96.34;101272.86;105572;1253;69592;-54
2023/10/17 08:00:34;;;;;;;13.40;9.70;;;;;;;6.04;96.23;101266.41;105566;1255;72199;-54
2023/10/17 08:03:15;;;;;;;15.80;8.80;;;;;;;6.11;96.27;101271.41;105588;1256;82198;-54
2023/10/17 08:05:45;;;;;;;12.40;8.90;;;;;;;6.18;96.02;101272.23;105523;1253;72172;-54
2023/10/17 08:08:14;;;;;;;12.90;8.60;;;;;;;6.27;96.47;101274.98;105641;1253;69191;-54
2023/10/17 08:10:46;;;;;;;11.20;8.60;;;;;;;6.35;96.01;101276.67;105603;1255;69173;-54
2023/10/17 08:13:15;;;;;;;13.40;9.30;;;;;;;6.41;95.98;101276.98;105581;1252;71901;-54
2023/10/17 08:18:14;;;;;;;12.00;8.20;;;;;;;6.52;95.70;101280.56;105573;1253;71754;-53
2023/10/17 08:23:19;;;;;;;9.60;8.00;;;;;;;6.71;95.74;101277.81;105556;1253;69393;-52
2023/10/17 08:25:53;;;;;;;11.60;8.50;;;;;;;6.81;95.77;101276.36;105555;1253;72144;-55
2023/10/17 08:31:20;;;;;;;11.90;8.00;;;;;;;7.00;95.68;101278.64;105581;1255;71726;-55
2023/10/17 08:42:05;;;;;;;10.30;7.20;;;;;;;7.45;95.74;101283.27;105547;1256;82021;-55
2023/10/17 08:44:38;;;;;;;9.00;6.80;;;;;;;7.54;95.75;101285.79;105552;1253;70496;-54
2023/10/17 08:47:11;;;;;;;8.80;7.20;;;;;;;7.62;95.40;101287.09;105560;1253;69234;-52
2023/10/17 08:49:39;;;;;;;8.90;7.00;;;;;;;7.71;95.53;101283.34;105542;1253;69418;-53
2023/10/17 08:52:24;;;;;;;9.30;7.40;;;;;;;7.79;95.58;101281.70;105581;1256;72363;-55
2023/10/17 08:54:52;;;;;;;14.30;8.20;;;;;;;7.90;95.79;101279.99;105573;1253;81443;-54
2023/10/17 08:57:21;;;;;;;11.00;8.50;;;;;;;8.03;95.67;101275.13;105530;1253;73021;-54
2023/10/17 09:05:03;;;;;;;11.00;7.30;;;;;;;8.41;95.49;101273.80;105346;1255;268716;-53
2023/10/17 09:07:55;;;;;;;8.60;7.60;;;;;;;8.45;95.07;101268.70;105590;1253;83688;-54
2023/10/17 09:13:42;;;;;;;14.00;7.70;;;;;;;8.57;94.79;101272.34;105538;1253;69108;-54
2023/10/17 09:16:13;;;;;;;10.40;7.40;;;;;;;8.64;94.65;101272.06;105539;1255;69236;-53
2023/10/17 09:18:49;;;;;;;9.30;6.80;;;;;;;8.66;94.07;101268.38;105557;1253;73229;-51
2023/10/17 09:21:20;;;;;;;9.10;6.60;;;;;;;8.73;94.35;101271.41;105544;1255;81203;-55
2023/10/17 09:23:50;;;;;;;13.00;7.70;;;;;;;8.79;94.22;101272.70;105581;1255;72259;-53
2023/10/17 09:26:20;;;;;;;9.10;6.70;;;;;;;8.86;93.93;101269.80;105561;1254;69206;-55
2023/10/17 09:28:48;;;;;;;9.80;7.00;;;;;;;8.96;94.17;101273.31;105631;1252;69250;-54
2023/10/17 09:31:17;;;;;;;9.70;6.30;;;;;;;9.05;94.17;101267.39;105442;1256;70999;-53
2023/10/17 09:33:48;;;;;;;8.20;6.60;;;;;;;9.16;94.13;101263.56;105573;1253;80752;-54
2023/10/17 09:36:19;;;;;;;8.60;7.00;;;;;;;9.28;94.14;101255.14;105519;1255;72368;-54
2023/10/17 09:38:48;;;;;;;9.90;7.10;;;;;;;9.44;94.34;101258.86;105541;1253;69083;-54
2023/10/17 09:41:17;;;;;;;11.30;7.20;;;;;;;9.58;93.94;101253.90;105602;1256;69183;-53
2023/10/17 09:43:53;;;;;;;10.40;7.30;;;;;;;9.75;93.90;101254.44;105567;1253;70867;-55
2023/10/17 09:46:28;;;;;;;11.80;8.00;;;;;;;9.96;93.92;101251.05;105577;1256;81822;-56
2023/10/17 09:49:00;;;;;;;8.80;6.70;;;;;;;10.17;93.87;101250.95;105429;1253;72230;-53
2023/10/17 09:51:33;;;;;;;9.00;7.40;;;;;;;10.37;93.45;101247.37;105578;1255;69161;-54
2023/10/17 09:54:04;;;;;;;7.90;7.00;;;;;;;10.59;93.11;101242.69;105595;1253;69063;-55
2023/10/17 09:56:37;;;;;;;8.10;6.80;;;;;;;10.71;92.64;101241.70;105550;1255;71387;-55
2023/10/17 09:59:11;;;;;;;10.80;7.10;;;;;;;10.85;92.64;101235.76;105542;1252;81839;-55
2023/10/17 10:01:42;;;;;;;8.80;6.90;;;;;;;10.96;92.27;101235.33;105595;1253;70876;-54
2023/10/17 10:04:10;;;;;;;10.50;7.50;;;;;;;11.03;91.83;101232.34;105534;1252;69173;-55
2023/10/17 10:06:39;;;;;;;10.40;6.90;;;;;;;11.09;91.57;101229.38;105547;1256;69203;-55
2023/10/17 10:09:13;;;;;;;7.30;6.00;;;;;;;11.21;91.52;101233.63;105649;1256;72167;-55
2023/10/17 10:11:48;;;;;;;9.30;7.10;;;;;;;11.32;91.01;101231.41;105552;1253;81555;-54
2023/10/17 10:14:23;;;;;;;9.00;7.10;;;;;;;11.40;90.45;101226.98;105546;1255;71090;-54
2023/10/17 10:16:54;;;;;;;10.80;7.70;;;;;;;11.49;90.16;101228.83;105526;1252;69212;-55
2023/10/17 10:19:44;;;;;;;10.70;8.00;;;;;;;11.54;89.84;101228.01;105557;1253;69197;-56
2023/10/17 10:22:13;;;;;;;8.50;6.10;;;;;;;11.60;89.62;101221.70;105527;1254;71937;-56
2023/10/17 10:24:45;;;;;;;6.80;5.90;;;;;;;11.75;89.43;101214.98;105548;1253;83303;-55
2023/10/17 10:29:52;;;;;;;9.00;7.30;;;;;;;12.00;89.14;101211.81;105530;1253;69198;-54
2023/10/17 10:32:42;;;;;;;9.00;6.70;;;;;;;12.18;89.23;101213.39;105538;1255;69161;-55
2023/10/17 10:35:11;;;;;;;8.70;7.00;;;;;;;12.33;88.61;101211.71;105616;1253;72513;-55
2023/10/17 10:37:57;;;;;;;10.70;7.90;;;;;;;12.44;88.33;101207.48;105607;1255;81560;-55
2023/10/17 10:40:26;;;;;;;8.70;7.10;;;;;;;12.55;87.53;101206.27;105556;1253;71809;-55
2023/10/17 10:42:58;;;;;;;8.90;6.10;;;;;;;12.58;86.65;101209.85;105530;1254;69084;-55
2023/10/17 10:45:36;;;;;;;7.70;6.00;;;;;;;12.65;85.99;101207.67;105579;1256;69196;-52
2023/10/17 10:48:15;;;;;;;7.60;5.80;;;;;;;12.75;85.61;101205.63;105566;1253;72901;-55
2023/10/17 10:50:46;;;;;;;8.70;6.20;;;;;;;12.87;85.11;101204.16;105570;1255;82797;-54
2023/10/17 10:53:18;;;;;;;;;;;;;;;12.92;84.59;101201.52;105593;1255;71971;-56
2023/10/17 10:55:51;;;;;;;6.30;5.40;;;;;;;12.89;83.59;101196.52;105532;1256;69165;-55
2023/10/17 10:58:19;;;;;;;8.40;6.70;;;;;;;12.89;83.41;101191.11;105600;1255;69074;-55
2023/10/17 11:00:47;;;;;;;6.70;5.40;;;;;;;12.88;82.75;101188.50;105535;1253;72646;-55
2023/10/17 11:03:19;;;;;;;6.50;5.10;;;;;;;12.93;82.71;101185.73;105591;1253;82536;-56
2023/10/17 11:05:57;;;;;;;6.00;4.90;;;;;;;13.08;82.55;101184.67;105579;1253;71516;-55
2023/10/17 11:08:34;;;;;;;5.30;3.80;;;;;;;13.12;81.43;101179.44;105539;1253;69150;-55
2023/10/17 11:11:04;;;;;;;5.30;3.80;;;;;;;13.27;80.79;101172.43;105553;1254;69170;-56
2023/10/17 11:13:49;;;;;;;4.20;3.40;;;;;;;13.45;80.48;101168.98;105591;1253;72453;-55
2023/10/17 11:16:19;;;;;;;7.20;4.40;;;;;;;13.59;79.50;101163.19;105504;1253;80241;-54
2023/10/17 11:18:48;;;;;;;5.20;4.30;;;;;;;13.55;79.26;101160.36;105538;1255;73170;-56
2023/10/17 11:21:20;;;;;;;11.10;9.20;;;;;;;13.66;79.08;101158.75;105623;1253;69090;-54
2023/10/17 11:23:54;;;;;;;6.10;4.30;;;;;;;13.74;78.48;101155.79;105546;1255;69165;-55
2023/10/17 11:26:28;;;;;;;7.20;5.10;;;;;;;13.78;78.24;101159.15;105569;1253;73906;-56
2023/10/17 11:28:58;;;;;;;8.10;4.50;;;;;;;13.80;78.28;101149.94;105532;1253;80610;-56
2023/10/17 11:31:26;;;;;;;6.00;4.70;;;;;;;13.72;77.54;101145.87;105585;1253;72327;-55
2023/10/17 11:34:03;;;;;;;6.50;3.90;;;;;;;13.66;77.29;101137.46;105605;1255;69180;-55
2023/10/17 11:37:11;;;;;;;5.50;4.20;;;;;;;13.77;76.94;101135.81;105576;1254;69169;-55
2023/10/17 11:39:40;;;;;;;5.00;3.60;;;;;;;14.03;76.17;101133.77;105529;1255;71261;-56
2023/10/17 11:42:09;;;;;;;3.10;2.20;;;;;;;14.11;76.14;101128.71;105526;1253;80384;-56
2023/10/17 11:44:46;;;;;;;2.00;1.40;;;;;;;14.13;75.13;101130.55;105602;1253;72190;-55
2023/10/17 11:47:26;;;;;;;3.10;2.30;;;;;;;14.37;73.71;101130.80;105505;1252;69154;-55
2023/10/17 11:49:54;;;;;;;2.50;1.70;;;;;;;14.71;73.44;101124.48;105597;1256;69202;-54
2023/10/17 11:52:24;;;;;;;2.90;1.90;;;;;;;14.71;72.42;101121.83;105512;1253;70864;-55
2023/10/17 11:55:11;;;;;;;4.80;2.70;;;;;;;14.59;71.35;101120.92;105564;1256;82776;-56
2023/10/17 11:57:46;;;;;;;3.90;2.30;;;;;;;14.49;70.84;101116.06;105559;1253;72040;-55
2023/10/17 12:02:49;;;;;;;3.10;2.30;;;;;;;14.05;70.39;101113.66;105546;1255;69247;-55
2023/10/17 12:05:19;;;;;;;5.10;3.70;;;;;;;13.87;70.52;101112.94;105543;1255;70846;-54
2023/10/17 12:07:53;;;;;;;5.00;2.90;;;;;;;13.59;69.69;101112.64;105534;1253;81694;-53
2023/10/17 12:10:26;;;;;;;4.20;3.60;;;;;;;13.31;69.68;101110.51;105510;1256;72882;-55
2023/10/17 12:13:05;;;;;;;4.10;1.70;;;;;;;13.13;70.00;101110.25;105534;1253;69147;-55
2023/10/17 12:15:33;;;;;;;2.10;0.80;;;;;;;12.97;69.78;101107.86;105581;1255;69163;-55
2023/10/17 12:18:01;;;;;;;1.50;1.10;;;;;;;12.79;69.25;101106.75;105540;1253;72582;-55
2023/10/17 12:20:30;;;;;;;3.80;1.40;;;;;;;12.59;69.18;101100.94;105547;1256;81712;-55
2023/10/17 12:22:59;;;;;;;2.60;1.10;;;;;;;12.44;69.35;101104.95;105527;1253;71763;-55
2023/10/17 12:25:29;;;;;;;2.80;1.30;;;;;;;12.28;69.13;101105.85;105606;1253;69093;-55
2023/10/17 12:27:58;;;;;;;;;;;;;;;12.13;69.18;101111.76;105574;1255;69141;-53
2023/10/17 12:30:27;;;;;;;4.60;1.30;;;;;;;12.01;69.09;101107.91;105614;1255;71453;-55
2023/10/17 12:32:56;;;;;;;2.40;1.20;;;;;;;11.93;69.14;101109.40;105590;1254;81987;-52
2023/10/17 12:35:27;;;;;;;3.00;1.30;;;;;;;11.87;69.39;101110.47;105572;1254;72100;-53
2023/10/17 12:38:06;;;;;;;3.10;1.00;;;;;;;11.84;69.78;101106.86;105565;1253;69246;-55
2023/10/17 12:40:34;;;;;;;2.80;1.30;;;;;;;11.77;69.81;101104.95;105572;1253;69123;-54
2023/10/17 12:43:02;;;;;;;2.20;1.10;;;;;;;11.68;69.84;101104.89;105495;1255;71372;-53
2023/10/17 12:45:30;;;;;;;1.50;1.10;;;;;;;11.66;70.09;101100.39;105499;1254;81189;-53
2023/10/17 12:47:59;;;;;;;2.50;1.20;;;;;;;11.65;70.03;101105.33;105551;1253;72142;-51
2023/10/17 12:50:27;;;;;;;3.50;1.30;;;;;;;11.65;70.03;101103.07;105550;1251;69168;-55
2023/10/17 12:52:56;;;;;;;2.30;1.10;;;;;;;11.62;70.05;101100.34;105487;1252;69218;-51
2023/10/17 12:55:24;;;;;;;2.40;1.30;;;;;;;11.59;70.18;101098.84;105545;1253;72648;-51
2023/10/17 12:57:53;;;;;;;2.80;1.80;;;;;;;11.53;69.89;101099.39;105532;1253;81656;-52
2023/10/17 13:00:26;;;;;;;2.80;1.80;;;;;;;11.46;69.50;101100.13;105581;1253;71920;-52
2023/10/17 13:02:55;;;;;;;2.40;1.80;;;;;;;11.40;68.91;101095.05;105546;1254;69086;-54
2023/10/17 13:05:26;;;;;;;6.40;2.00;;;;;;;11.33;69.26;101090.20;105552;1255;69126;-54
2023/10/17 13:07:54;;;;;;;2.50;1.70;;;;;;;11.32;69.54;101085.29;105512;1256;71776;-53
2023/10/17 13:10:23;;;;;;;1.60;1.30;;;;;;;11.34;69.71;101081.91;105559;1255;81310;-55
2023/10/17 13:12:51;;;;;;;3.50;1.50;;;;;;;11.37;69.90;101082.53;105480;1252;70946;-50
2023/10/17 13:15:19;;;;;;;1.90;1.70;;;;;;;11.37;69.89;101083.41;105455;1255;69472;-54
2023/10/17 13:17:52;;;;;;;5.60;1.70;;;;;;;11.34;69.91;101081.41;105462;1256;69193;-54
2023/10/17 13:20:32;;;;;;;3.00;1.80;;;;;;;11.32;69.90;101080.73;105516;1253;72442;-52
2023/10/17 13:23:20;;;;;;;2.50;1.70;;;;;;;11.30;69.97;101073.61;105451;1253;80285;-54
2023/10/17 13:25:49;;;;;;;2.30;1.80;;;;;;;11.26;69.86;101066.94;105482;1256;70279;-55
2023/10/17 13:28:17;;;;;;;2.10;1.50;;;;;;;11.22;70.00;101069.31;105432;1253;69143;-54
2023/10/17 13:30:45;;;;;;;2.90;1.20;;;;;;;11.18;70.13;101072.08;105550;1256;69160;-54
2023/10/17 13:33:13;;;;;;;2.20;1.40;;;;;;;11.13;70.07;101070.63;105479;1253;71919;-54
2023/10/17 13:35:42;;;;;;;1.60;1.30;;;;;;;11.10;69.89;101070.20;105518;1256;81942;-55
2023/10/17 13:38:10;;;;;;;3.40;2.00;;;;;;;11.11;69.99;101071.38;105557;1254;72340;-54
2023/10/17 13:40:38;;;;;;;3.00;1.60;;;;;;;11.08;69.53;101068.69;105553;1253;69691;-54
2023/10/17 13:43:07;;;;;;;2.50;1.50;;;;;;;11.03;69.62;101067.42;105554;1253;69103;-54
2023/10/17 13:45:41;;;;;;;2.10;1.20;;;;;;;11.01;69.67;101065.91;105549;1255;71901;-53
2023/10/17 13:48:10;;;;;;;2.60;1.40;;;;;;;10.99;69.80;101067.90;105492;1256;81389;-54
2023/10/17 13:50:39;;;;;;;4.60;1.80;;;;;;;10.96;69.97;101067.09;105443;1253;72928;-52
2023/10/17 13:53:07;;;;;;;2.30;1.50;;;;;;;10.93;69.79;101067.88;105510;1253;69226;-54
2023/10/17 13:55:38;;;;;;;3.20;1.50;;;;;;;10.91;69.85;101067.21;105409;1256;69190;-51
2023/10/17 13:58:06;;;;;;;3.50;1.40;;;;;;;10.91;69.75;101064.41;105478;1253;72814;-54
2023/10/17 14:00:45;;;;;;;3.10;1.60;;;;;;;10.87;69.49;101062.95;105598;1253;80456;-54
2023/10/17 14:03:14;;;;;;;3.50;1.70;;;;;;;10.86;69.43;101061.76;105496;1253;71888;-53
2023/10/17 14:05:47;;;;;;;3.10;1.40;;;;;;;10.87;69.18;101059.64;105423;1253;69175;-55